sensor_id;sensor_type;location;lat;lon;timestamp;pressure;altitude;pressure_sealevel;temperature;humidity
80116;BME280;69423;47.608;19.366;2023-07-22T00:00:10;98533.47;;;17.27;91.94
80116;BME280;69423;47.608;19.366;2023-07-22T00:00:45;98528.66;;;17.29;92.09
80116;BME280;69423;47.608;19.366;2023-07-22T00:01:16;98528.44;;;17.30;92.60
80116;BME280;69423;47.608;19.366;2023-07-22T00:01:47;98536.75;;;17.29;92.44
80116;BME280;69423;47.608;19.366;2023-07-22T00:02:18;98524.34;;;17.28;92.58
80116;BME280;69423;47.608;19.366;2023-07-22T00:02:49;98534.91;;;17.29;92.42
80116;BME280;69423;47.608;19.366;2023-07-22T00:03:20;98534.63;;;17.31;92.84
80116;BME280;69423;47.608;19.366;2023-07-22T00:03:53;98535.72;;;17.30;92.71
80116;BME280;69423;47.608;19.366;2023-07-22T00:04:25;98538.28;;;17.25;92.88
80116;BME280;69423;47.608;19.366;2023-07-22T00:04:56;98533.38;;;17.22;92.79
80116;BME280;69423;47.608;19.366;2023-07-22T00:05:27;98541.25;;;17.23;92.37
80116;BME280;69423;47.608;19.366;2023-07-22T00:06:16;98541.34;;;17.28;92.74
80116;BME280;69423;47.608;19.366;2023-07-22T00:06:48;98543.00;;;17.29;92.30
80116;BME280;69423;47.608;19.366;2023-07-22T00:07:19;98538.63;;;17.28;91.92
80116;BME280;69423;47.608;19.366;2023-07-22T00:07:50;98539.44;;;17.29;92.09
80116;BME280;69423;47.608;19.366;2023-07-22T00:08:21;98545.41;;;17.31;92.06
80116;BME280;69423;47.608;19.366;2023-07-22T00:08:53;98548.38;;;17.29;92.67
80116;BME280;69423;47.608;19.366;2023-07-22T00:09:24;98546.72;;;17.28;92.25
80116;BME280;69423;47.608;19.366;2023-07-22T00:09:56;98540.28;;;17.29;91.93
80116;BME280;69423;47.608;19.366;2023-07-22T00:10:27;98550.81;;;17.31;92.21
80116;BME280;69423;47.608;19.366;2023-07-22T00:10:58;98550.00;;;17.30;92.12
80116;BME280;69423;47.608;19.366;2023-07-22T00:11:30;98543.56;;;17.31;91.69
80116;BME280;69423;47.608;19.366;2023-07-22T00:12:01;98544.84;;;17.29;92.24
80116;BME280;69423;47.608;19.366;2023-07-22T00:12:34;98544.84;;;17.29;92.41
80116;BME280;69423;47.608;19.366;2023-07-22T00:13:05;98545.91;;;17.28;92.17
80116;BME280;69423;47.608;19.366;2023-07-22T00:13:36;98548.84;;;17.26;91.75
80116;BME280;69423;47.608;19.366;2023-07-22T00:14:08;98537.47;;;17.24;92.30
80116;BME280;69423;47.608;19.366;2023-07-22T00:14:41;98542.03;;;17.24;92.39
80116;BME280;69423;47.608;19.366;2023-07-22T00:15:12;98532.91;;;17.25;91.78
80116;BME280;69423;47.608;19.366;2023-07-22T00:15:43;98538.53;;;17.23;92.36
80116;BME280;69423;47.608;19.366;2023-07-22T00:16:14;98531.50;;;17.22;92.56
80116;BME280;69423;47.608;19.366;2023-07-22T00:16:45;98540.88;;;17.19;92.18
80116;BME280;69423;47.608;19.366;2023-07-22T00:17:16;98538.19;;;17.19;92.64
80116;BME280;69423;47.608;19.366;2023-07-22T00:17:47;98535.94;;;17.16;91.98
80116;BME280;69423;47.608;19.366;2023-07-22T00:18:19;98541.34;;;17.16;92.53
80116;BME280;69423;47.608;19.366;2023-07-22T00:18:50;98536.53;;;17.18;92.63
80116;BME280;69423;47.608;19.366;2023-07-22T00:19:21;98537.59;;;17.17;92.07
80116;BME280;69423;47.608;19.366;2023-07-22T00:19:52;98530.34;;;17.18;91.62
80116;BME280;69423;47.608;19.366;2023-07-22T00:20:23;98535.72;;;17.18;92.13
80116;BME280;69423;47.608;19.366;2023-07-22T00:20:54;98532.22;;;17.17;92.04
80116;BME280;69423;47.608;19.366;2023-07-22T00:21:26;98533.84;;;17.18;92.06
80116;BME280;69423;47.608;19.366;2023-07-22T00:21:57;98523.53;;;17.15;91.95
80116;BME280;69423;47.608;19.366;2023-07-22T00:22:28;98527.53;;;17.13;91.88
80116;BME280;69423;47.608;19.366;2023-07-22T00:23:00;98528.34;;;17.13;92.07
80116;BME280;69423;47.608;19.366;2023-07-22T00:23:31;98522.38;;;17.11;91.74
80116;BME280;69423;47.608;19.366;2023-07-22T00:24:02;98529.88;;;17.09;92.01
80116;BME280;69423;47.608;19.366;2023-07-22T00:24:33;98524.00;;;17.12;92.19
80116;BME280;69423;47.608;19.366;2023-07-22T00:25:05;98527.78;;;17.11;91.70
80116;BME280;69423;47.608;19.366;2023-07-22T00:25:37;98533.16;;;17.11;92.22
80116;BME280;69423;47.608;19.366;2023-07-22T00:26:08;98537.16;;;17.09;91.78
80116;BME280;69423;47.608;19.366;2023-07-22T00:26:40;98528.47;;;17.07;92.44
80116;BME280;69423;47.608;19.366;2023-07-22T00:27:12;98535.75;;;17.06;92.82
80116;BME280;69423;47.608;19.366;2023-07-22T00:27:43;98530.81;;;17.03;92.47
80116;BME280;69423;47.608;19.366;2023-07-22T00:28:14;98535.41;;;17.03;92.18
80116;BME280;69423;47.608;19.366;2023-07-22T00:28:45;98534.59;;;17.02;92.26
80116;BME280;69423;47.608;19.366;2023-07-22T00:29:17;98534.59;;;17.02;91.94
80116;BME280;69423;47.608;19.366;2023-07-22T00:29:48;98536.22;;;17.03;91.85
80116;BME280;69423;47.608;19.366;2023-07-22T00:30:19;98534.59;;;17.02;92.35
80116;BME280;69423;47.608;19.366;2023-07-22T00:30:50;98541.00;;;17.01;92.19
80116;BME280;69423;47.608;19.366;2023-07-22T00:31:21;98536.69;;;17.00;91.90
80116;BME280;69423;47.608;19.366;2023-07-22T00:31:52;98534.00;;;17.00;92.10
80116;BME280;69423;47.608;19.366;2023-07-22T00:32:24;98529.06;;;16.97;91.93
80116;BME280;69423;47.608;19.366;2023-07-22T00:32:55;98535.97;;;16.93;92.30
80116;BME280;69423;47.608;19.366;2023-07-22T00:33:26;98530.34;;;16.94;91.79
80116;BME280;69423;47.608;19.366;2023-07-22T00:33:57;98531.75;;;16.97;91.88
80116;BME280;69423;47.608;19.366;2023-07-22T00:34:28;98528.84;;;16.98;92.14
80116;BME280;69423;47.608;19.366;2023-07-22T00:34:59;98530.94;;;16.96;92.64
80116;BME280;69423;47.608;19.366;2023-07-22T00:35:30;98522.06;;;16.96;92.29
80116;BME280;69423;47.608;19.366;2023-07-22T00:36:02;98524.50;;;16.97;92.30
80116;BME280;69423;47.608;19.366;2023-07-22T00:36:34;98526.97;;;16.99;91.93
80116;BME280;69423;47.608;19.366;2023-07-22T00:37:05;98525.56;;;16.96;92.89
80116;BME280;69423;47.608;19.366;2023-07-22T00:37:36;98522.88;;;16.96;92.01
80116;BME280;69423;47.608;19.366;2023-07-22T00:38:07;98528.03;;;16.98;91.99
80116;BME280;69423;47.608;19.366;2023-07-22T00:38:38;98531.75;;;16.97;92.43
80116;BME280;69423;47.608;19.366;2023-07-22T00:39:10;98523.91;;;16.95;92.24
80116;BME280;69423;47.608;19.366;2023-07-22T00:39:44;98520.63;;;16.93;92.53
80116;BME280;69423;47.608;19.366;2023-07-22T00:40:15;98526.72;;;16.89;92.80
80116;BME280;69423;47.608;19.366;2023-07-22T00:40:47;98525.31;;;16.86;92.56
80116;BME280;69423;47.608;19.366;2023-07-22T00:41:18;98526.13;;;16.87;92.32
80116;BME280;69423;47.608;19.366;2023-07-22T00:41:49;98523.22;;;16.88;92.81
80116;BME280;69423;47.608;19.366;2023-07-22T00:42:21;98527.78;;;16.88;92.17
80116;BME280;69423;47.608;19.366;2023-07-22T00:42:52;98527.78;;;16.88;91.95
80116;BME280;69423;47.608;19.366;2023-07-22T00:43:23;98534.81;;;16.89;91.67
80116;BME280;69423;47.608;19.366;2023-07-22T00:43:56;98523.22;;;16.88;91.97
80116;BME280;69423;47.608;19.366;2023-07-22T00:44:27;98535.63;;;16.89;91.42
80116;BME280;69423;47.608;19.366;2023-07-22T00:44:58;98530.94;;;16.85;92.08
80116;BME280;69423;47.608;19.366;2023-07-22T00:45:29;98540.91;;;16.84;91.67
80116;BME280;69423;47.608;19.366;2023-07-22T00:46:00;98533.41;;;16.86;92.46
80116;BME280;69423;47.608;19.366;2023-07-22T00:46:31;98531.53;;;16.87;92.53
80116;BME280;69423;47.608;19.366;2023-07-22T00:47:03;98533.19;;;16.88;92.19
80116;BME280;69423;47.608;19.366;2023-07-22T00:47:35;98529.41;;;16.89;92.16
80116;BME280;69423;47.608;19.366;2023-07-22T00:48:08;98520.75;;;16.87;91.58
80116;BME280;69423;47.608;19.366;2023-07-22T00:48:41;98517.47;;;16.85;91.63
80116;BME280;69423;47.608;19.366;2023-07-22T00:49:14;98523.94;;;16.84;91.60
80116;BME280;69423;47.608;19.366;2023-07-22T00:49:47;98525.78;;;16.83;91.61
80116;BME280;69423;47.608;19.366;2023-07-22T00:50:20;98525.78;;;16.83;91.40
80116;BME280;69423;47.608;19.366;2023-07-22T00:50:52;98522.50;;;16.81;91.13
80116;BME280;69423;47.608;19.366;2023-07-22T00:51:24;98517.34;;;16.79;91.62
80116;BME280;69423;47.608;19.366;2023-07-22T00:51:57;98513.00;;;16.78;91.38
80116;BME280;69423;47.608;19.366;2023-07-22T00:52:30;98518.59;;;16.77;92.51
80116;BME280;69423;47.608;19.366;2023-07-22T00:53:01;98520.84;;;16.80;92.14
80116;BME280;69423;47.608;19.366;2023-07-22T00:53:33;98520.66;;;16.82;92.50
80116;BME280;69423;47.608;19.366;2023-07-22T00:54:04;98520.66;;;16.82;92.36
80116;BME280;69423;47.608;19.366;2023-07-22T00:54:35;98528.09;;;16.79;91.76
80116;BME280;69423;47.608;19.366;2023-07-22T00:55:07;98529.75;;;16.81;91.77
80116;BME280;69423;47.608;19.366;2023-07-22T00:55:39;98536.81;;;16.82;92.29
80116;BME280;69423;47.608;19.366;2023-07-22T00:56:13;98534.94;;;16.82;92.89
80116;BME280;69423;47.608;19.366;2023-07-22T00:56:47;98536.81;;;16.82;92.49
80116;BME280;69423;47.608;19.366;2023-07-22T00:57:19;98538.66;;;16.81;91.79
80116;BME280;69423;47.608;19.366;2023-07-22T00:57:50;98543.22;;;16.81;91.81
80116;BME280;69423;47.608;19.366;2023-07-22T00:58:21;98545.69;;;16.82;92.09
80116;BME280;69423;47.608;19.366;2023-07-22T00:58:52;98550.28;;;16.82;92.41
80116;BME280;69423;47.608;19.366;2023-07-22T00:59:27;98546.50;;;16.83;92.68
80116;BME280;69423;47.608;19.366;2023-07-22T00:59:58;98546.50;;;16.83;92.86
80116;BME280;69423;47.608;19.366;2023-07-22T01:00:29;98549.44;;;16.81;92.08
80116;BME280;69423;47.608;19.366;2023-07-22T01:01:00;98548.38;;;16.82;92.81
80116;BME280;69423;47.608;19.366;2023-07-22T01:01:31;98555.84;;;16.80;92.89
80116;BME280;69423;47.608;19.366;2023-07-22T01:02:02;98553.53;;;16.84;92.93
80116;BME280;69423;47.608;19.366;2023-07-22T01:02:33;98552.69;;;16.83;92.82
80116;BME280;69423;47.608;19.366;2023-07-22T01:03:05;98556.47;;;16.82;93.16
80116;BME280;69423;47.608;19.366;2023-07-22T01:03:38;98550.69;;;16.78;93.41
80116;BME280;69423;47.608;19.366;2023-07-22T01:04:09;98551.50;;;16.79;93.34
80116;BME280;69423;47.608;19.366;2023-07-22T01:04:41;98549.06;;;16.77;92.82
80116;BME280;69423;47.608;19.366;2023-07-22T01:05:12;98550.69;;;16.78;93.32
80116;BME280;69423;47.608;19.366;2023-07-22T01:05:43;98545.31;;;16.78;93.03
80116;BME280;69423;47.608;19.366;2023-07-22T01:06:15;98548.00;;;16.78;93.58
80116;BME280;69423;47.608;19.366;2023-07-22T01:06:49;98559.56;;;16.79;93.70
80116;BME280;69423;47.608;19.366;2023-07-22T01:07:20;98553.16;;;16.80;93.27
80116;BME280;69423;47.608;19.366;2023-07-22T01:07:52;98559.38;;;16.81;93.38
80116;BME280;69423;47.608;19.366;2023-07-22T01:08:23;98567.47;;;16.81;92.73
80116;BME280;69423;47.608;19.366;2023-07-22T01:08:54;98552.97;;;16.82;93.11
80116;BME280;69423;47.608;19.366;2023-07-22T01:09:25;98549.44;;;16.81;93.23
80116;BME280;69423;47.608;19.366;2023-07-22T01:09:57;98558.09;;;16.83;93.40
80116;BME280;69423;47.608;19.366;2023-07-22T01:10:31;98555.41;;;16.83;92.53
80116;BME280;69423;47.608;19.366;2023-07-22T01:11:02;98548.38;;;16.82;92.78
80116;BME280;69423;47.608;19.366;2023-07-22T01:11:34;98556.25;;;16.84;93.70
80116;BME280;69423;47.608;19.366;2023-07-22T01:12:06;98552.47;;;16.85;93.12
80116;BME280;69423;47.608;19.366;2023-07-22T01:12:37;98550.38;;;16.87;93.08
80116;BME280;69423;47.608;19.366;2023-07-22T01:13:09;98549.78;;;16.85;93.04
80116;BME280;69423;47.608;19.366;2023-07-22T01:13:40;98555.97;;;16.85;92.68
80116;BME280;69423;47.608;19.366;2023-07-22T01:14:11;98551.91;;;16.83;93.06
80116;BME280;69423;47.608;19.366;2023-07-22T01:14:42;98552.69;;;16.83;93.55
80116;BME280;69423;47.608;19.366;2023-07-22T01:15:13;98561.84;;;16.82;93.06
80116;BME280;69423;47.608;19.366;2023-07-22T01:15:45;98560.19;;;16.81;93.41
80116;BME280;69423;47.608;19.366;2023-07-22T01:16:16;98555.41;;;16.83;93.60
80116;BME280;69423;47.608;19.366;2023-07-22T01:16:48;98557.28;;;16.83;93.00
80116;BME280;69423;47.608;19.366;2023-07-22T01:17:19;98562.66;;;16.83;92.83
80116;BME280;69423;47.608;19.366;2023-07-22T01:17:51;98562.22;;;16.86;92.86
80116;BME280;69423;47.608;19.366;2023-07-22T01:18:22;98558.94;;;16.84;92.80
80116;BME280;69423;47.608;19.366;2023-07-22T01:18:54;98559.75;;;16.84;92.71
80116;BME280;69423;47.608;19.366;2023-07-22T01:19:25;98568.84;;;16.83;92.94
80116;BME280;69423;47.608;19.366;2023-07-22T01:19:57;98578.00;;;16.82;92.37
80116;BME280;69423;47.608;19.366;2023-07-22T01:20:30;98567.59;;;16.86;93.01
80116;BME280;69423;47.608;19.366;2023-07-22T01:21:01;98569.44;;;16.85;93.05
80116;BME280;69423;47.608;19.366;2023-07-22T01:21:33;98577.53;;;16.85;93.45
80116;BME280;69423;47.608;19.366;2023-07-22T01:22:06;98580.47;;;16.84;92.65
80116;BME280;69423;47.608;19.366;2023-07-22T01:22:38;98581.06;;;16.86;92.69
80116;BME280;69423;47.608;19.366;2023-07-22T01:23:10;98580.47;;;16.84;92.64
80116;BME280;69423;47.608;19.366;2023-07-22T01:23:42;98580.69;;;16.82;93.07
80116;BME280;69423;47.608;19.366;2023-07-22T01:24:13;98580.06;;;16.80;93.02
80116;BME280;69423;47.608;19.366;2023-07-22T01:24:45;98575.31;;;16.82;92.78
80116;BME280;69423;47.608;19.366;2023-07-22T01:25:17;98572.63;;;16.82;93.27
80116;BME280;69423;47.608;19.366;2023-07-22T01:25:48;98576.94;;;16.83;93.65
80116;BME280;69423;47.608;19.366;2023-07-22T01:26:19;98573.44;;;16.83;93.51
80116;BME280;69423;47.608;19.366;2023-07-22T01:26:50;98574.69;;;16.80;93.21
80116;BME280;69423;47.608;19.366;2023-07-22T01:27:22;98574.69;;;16.80;93.54
80116;BME280;69423;47.608;19.366;2023-07-22T01:27:53;98584.19;;;16.83;93.99
80116;BME280;69423;47.608;19.366;2023-07-22T01:28:24;98578.59;;;16.84;93.74
80116;BME280;69423;47.608;19.366;2023-07-22T01:29:05;98584.19;;;16.83;94.15
80116;BME280;69423;47.608;19.366;2023-07-22T01:29:36;98579.41;;;16.85;94.37
80116;BME280;69423;47.608;19.366;2023-07-22T01:30:08;98578.00;;;16.82;94.24
80116;BME280;69423;47.608;19.366;2023-07-22T01:30:40;98586.31;;;16.81;94.08
80116;BME280;69423;47.608;19.366;2023-07-22T01:31:11;98585.00;;;16.83;93.87
80116;BME280;69423;47.608;19.366;2023-07-22T01:31:47;98585.84;;;16.84;93.98
80116;BME280;69423;47.608;19.366;2023-07-22T01:32:18;98587.47;;;16.85;93.25
80116;BME280;69423;47.608;19.366;2023-07-22T01:32:50;98587.97;;;16.82;94.21
80116;BME280;69423;47.608;19.366;2023-07-22T01:33:21;98587.13;;;16.81;93.81
80116;BME280;69423;47.608;19.366;2023-07-22T01:33:52;98593.34;;;16.82;94.09
80116;BME280;69423;47.608;19.366;2023-07-22T01:34:23;98582.56;;;16.82;93.70
80116;BME280;69423;47.608;19.366;2023-07-22T01:34:55;98586.75;;;16.77;94.21
80116;BME280;69423;47.608;19.366;2023-07-22T01:35:26;98590.03;;;16.79;93.59
80116;BME280;69423;47.608;19.366;2023-07-22T01:35:58;98591.69;;;16.81;93.66
80116;BME280;69423;47.608;19.366;2023-07-22T01:36:29;98581.50;;;16.83;93.79
80116;BME280;69423;47.608;19.366;2023-07-22T01:37:00;98586.31;;;16.81;93.66
80116;BME280;69423;47.608;19.366;2023-07-22T01:37:31;98579.28;;;16.79;93.86
80116;BME280;69423;47.608;19.366;2023-07-22T01:38:02;98575.72;;;16.79;93.68
80116;BME280;69423;47.608;19.366;2023-07-22T01:38:34;98577.59;;;16.78;93.70
80116;BME280;69423;47.608;19.366;2023-07-22T01:39:06;98591.88;;;16.79;93.57
80116;BME280;69423;47.608;19.366;2023-07-22T01:39:37;98584.66;;;16.79;94.01
80116;BME280;69423;47.608;19.366;2023-07-22T01:40:09;98583.81;;;16.79;93.79
80116;BME280;69423;47.608;19.366;2023-07-22T01:40:43;98581.50;;;16.83;93.67
80116;BME280;69423;47.608;19.366;2023-07-22T01:41:14;98587.72;;;16.83;94.32
80116;BME280;69423;47.608;19.366;2023-07-22T01:41:45;98585.84;;;16.84;93.88
80116;BME280;69423;47.608;19.366;2023-07-22T01:42:17;98588.28;;;16.85;93.42
80116;BME280;69423;47.608;19.366;2023-07-22T01:42:49;98590.41;;;16.83;93.44
80116;BME280;69423;47.608;19.366;2023-07-22T01:43:20;98584.56;;;16.86;93.38
80116;BME280;69423;47.608;19.366;2023-07-22T01:43:51;98590.75;;;16.87;94.05
80116;BME280;69423;47.608;19.366;2023-07-22T01:44:22;98591.00;;;16.85;94.48
80116;BME280;69423;47.608;19.366;2023-07-22T01:44:53;98590.19;;;16.85;93.71
80116;BME280;69423;47.608;19.366;2023-07-22T01:45:24;98594.28;;;16.87;93.42
80116;BME280;69423;47.608;19.366;2023-07-22T01:45:55;98592.41;;;16.88;93.70
80116;BME280;69423;47.608;19.366;2023-07-22T01:46:26;98587.03;;;16.88;94.24
80116;BME280;69423;47.608;19.366;2023-07-22T01:46:57;98597.81;;;16.88;94.24
80116;BME280;69423;47.608;19.366;2023-07-22T01:47:28;98594.03;;;16.89;93.88
80116;BME280;69423;47.608;19.366;2023-07-22T01:47:59;98602.13;;;16.89;94.19
80116;BME280;69423;47.608;19.366;2023-07-22T01:48:30;98597.81;;;16.88;94.31
80116;BME280;69423;47.608;19.366;2023-07-22T01:49:03;98598.84;;;16.87;94.33
80116;BME280;69423;47.608;19.366;2023-07-22T01:49:34;98599.91;;;16.86;94.08
80116;BME280;69423;47.608;19.366;2023-07-22T01:50:06;98595.34;;;16.86;93.63
80116;BME280;69423;47.608;19.366;2023-07-22T01:50:37;98596.97;;;16.87;94.15
80116;BME280;69423;47.608;19.366;2023-07-22T01:51:08;98601.91;;;16.90;94.58
80116;BME280;69423;47.608;19.366;2023-07-22T01:51:40;98598.03;;;16.86;94.40
80116;BME280;69423;47.608;19.366;2023-07-22T01:52:11;98594.53;;;16.86;94.63
80116;BME280;69423;47.608;19.366;2023-07-22T01:52:42;98597.06;;;16.81;93.77
80116;BME280;69423;47.608;19.366;2023-07-22T01:53:13;98598.94;;;16.80;93.73
80116;BME280;69423;47.608;19.366;2023-07-22T01:53:44;98602.06;;;16.77;94.59
80116;BME280;69423;47.608;19.366;2023-07-22T01:54:15;98599.38;;;16.77;93.83
80116;BME280;69423;47.608;19.366;2023-07-22T01:54:46;98597.75;;;16.76;93.90
80116;BME280;69423;47.608;19.366;2023-07-22T01:55:18;98601.25;;;16.76;93.63
80116;BME280;69423;47.608;19.366;2023-07-22T01:55:49;98595.88;;;16.76;94.01
80116;BME280;69423;47.608;19.366;2023-07-22T01:56:20;98599.53;;;16.82;94.82
80116;BME280;69423;47.608;19.366;2023-07-22T01:56:51;98598.13;;;16.79;93.73
80116;BME280;69423;47.608;19.366;2023-07-22T01:57:22;98600.81;;;16.79;94.13
80116;BME280;69423;47.608;19.366;2023-07-22T01:57:53;98602.47;;;16.81;94.36
80116;BME280;69423;47.608;19.366;2023-07-22T01:58:25;98603.28;;;16.81;94.59
80116;BME280;69423;47.608;19.366;2023-07-22T01:58:56;98598.72;;;16.82;94.06
80116;BME280;69423;47.608;19.366;2023-07-22T01:59:27;98604.53;;;16.78;93.89
80116;BME280;69423;47.608;19.366;2023-07-22T01:59:58;98610.31;;;16.82;94.20
80116;BME280;69423;47.608;19.366;2023-07-22T02:00:29;98605.00;;;16.75;93.69
80116;BME280;69423;47.608;19.366;2023-07-22T02:01:00;98603.34;;;16.74;93.92
80116;BME280;69423;47.608;19.366;2023-07-22T02:01:32;98603.59;;;16.73;94.48
80116;BME280;69423;47.608;19.366;2023-07-22T02:02:03;98614.94;;;16.75;94.62
80116;BME280;69423;47.608;19.366;2023-07-22T02:02:35;98622.19;;;16.74;94.22
80116;BME280;69423;47.608;19.366;2023-07-22T02:03:06;98621.63;;;16.72;94.48
80116;BME280;69423;47.608;19.366;2023-07-22T02:03:37;98614.25;;;16.68;94.65
80116;BME280;69423;47.608;19.366;2023-07-22T02:04:08;98622.09;;;16.69;94.37
80116;BME280;69423;47.608;19.366;2023-07-22T02:04:39;98619.63;;;16.68;94.32
80116;BME280;69423;47.608;19.366;2023-07-22T02:05:10;98624.56;;;16.71;94.65
80116;BME280;69423;47.608;19.366;2023-07-22T02:05:41;98623.28;;;16.73;94.67
80116;BME280;69423;47.608;19.366;2023-07-22T02:06:12;98622.91;;;16.70;94.77
80116;BME280;69423;47.608;19.366;2023-07-22T02:06:43;98619.41;;;16.69;94.44
80116;BME280;69423;47.608;19.366;2023-07-22T02:07:15;98619.19;;;16.71;94.55
80116;BME280;69423;47.608;19.366;2023-07-22T02:07:46;98627.84;;;16.73;94.22
80116;BME280;69423;47.608;19.366;2023-07-22T02:08:17;98626.78;;;16.74;94.94
80116;BME280;69423;47.608;19.366;2023-07-22T02:08:48;98621.03;;;16.70;94.76
80116;BME280;69423;47.608;19.366;2023-07-22T02:09:19;98625.16;;;16.73;95.35
80116;BME280;69423;47.608;19.366;2023-07-22T02:09:50;98620.56;;;16.73;94.85
80116;BME280;69423;47.608;19.366;2023-07-22T02:10:22;98628.41;;;16.75;94.29
80116;BME280;69423;47.608;19.366;2023-07-22T02:10:53;98627.00;;;16.72;94.34
80116;BME280;69423;47.608;19.366;2023-07-22T02:11:24;98618.34;;;16.70;94.72
80116;BME280;69423;47.608;19.366;2023-07-22T02:11:55;98625.00;;;16.68;95.02
80116;BME280;69423;47.608;19.366;2023-07-22T02:12:26;98621.72;;;16.66;94.68
80116;BME280;69423;47.608;19.366;2023-07-22T02:12:57;98626.28;;;16.65;94.94
80116;BME280;69423;47.608;19.366;2023-07-22T02:13:28;98624.63;;;16.64;95.32
80116;BME280;69423;47.608;19.366;2023-07-22T02:14:00;98622.66;;;16.59;95.12
80116;BME280;69423;47.608;19.366;2023-07-22T02:14:31;98631.78;;;16.58;96.06
80116;BME280;69423;47.608;19.366;2023-07-22T02:15:02;98626.63;;;16.57;95.42
80116;BME280;69423;47.608;19.366;2023-07-22T02:15:33;98624.53;;;16.59;95.70
80116;BME280;69423;47.608;19.366;2023-07-22T02:16:05;98632.22;;;16.55;95.72
80116;BME280;69423;47.608;19.366;2023-07-22T02:16:37;98627.66;;;16.56;95.53
80116;BME280;69423;47.608;19.366;2023-07-22T02:17:08;98634.91;;;16.55;95.57
80116;BME280;69423;47.608;19.366;2023-07-22T02:17:40;98635.63;;;16.51;95.91
80116;BME280;69423;47.608;19.366;2023-07-22T02:18:11;98632.44;;;16.54;95.76
80116;BME280;69423;47.608;19.366;2023-07-22T02:18:42;98627.97;;;16.48;96.75
80116;BME280;69423;47.608;19.366;2023-07-22T02:19:13;98627.38;;;16.46;97.00
80116;BME280;69423;47.608;19.366;2023-07-22T02:19:44;98629.63;;;16.49;97.08
80116;BME280;69423;47.608;19.366;2023-07-22T02:20:15;98633.50;;;16.53;96.52
80116;BME280;69423;47.608;19.366;2023-07-22T02:20:46;98632.00;;;16.57;96.83
80116;BME280;69423;47.608;19.366;2023-07-22T02:21:17;98636.78;;;16.55;97.10
80116;BME280;69423;47.608;19.366;2023-07-22T02:21:48;98631.41;;;16.55;96.60
80116;BME280;69423;47.608;19.366;2023-07-22T02:22:19;98625.88;;;16.50;96.62
80116;BME280;69423;47.608;19.366;2023-07-22T02:22:50;98632.69;;;16.52;97.31
80116;BME280;69423;47.608;19.366;2023-07-22T02:23:22;98635.84;;;16.49;96.64
80116;BME280;69423;47.608;19.366;2023-07-22T02:23:53;98636.44;;;16.51;97.49
80116;BME280;69423;47.608;19.366;2023-07-22T02:24:24;98631.41;;;16.55;97.60
80116;BME280;69423;47.608;19.366;2023-07-22T02:24:55;98636.78;;;16.55;97.72
80116;BME280;69423;47.608;19.366;2023-07-22T02:25:26;98637.38;;;16.57;97.58
80116;BME280;69423;47.608;19.366;2023-07-22T02:25:57;98634.69;;;16.57;97.61
80116;BME280;69423;47.608;19.366;2023-07-22T02:26:28;98636.56;;;16.56;97.10
80116;BME280;69423;47.608;19.366;2023-07-22T02:26:59;98641.38;;;16.54;97.55
80116;BME280;69423;47.608;19.366;2023-07-22T02:27:30;98634.31;;;16.53;97.45
80116;BME280;69423;47.608;19.366;2023-07-22T02:28:02;98638.19;;;16.57;97.79
80116;BME280;69423;47.608;19.366;2023-07-22T02:28:33;98640.09;;;16.57;97.94
80116;BME280;69423;47.608;19.366;2023-07-22T02:29:04;98643.22;;;16.54;97.99
80116;BME280;69423;47.608;19.366;2023-07-22T02:29:35;98644.41;;;16.58;97.78
80116;BME280;69423;47.608;19.366;2023-07-22T02:30:07;98645.84;;;16.61;98.06
80116;BME280;69423;47.608;19.366;2023-07-22T02:30:41;98641.72;;;16.58;98.09
80116;BME280;69423;47.608;19.366;2023-07-22T02:31:12;98650.63;;;16.58;97.82
80116;BME280;69423;47.608;19.366;2023-07-22T02:31:43;98649.66;;;16.53;98.54
80116;BME280;69423;47.608;19.366;2023-07-22T02:32:14;98646.88;;;16.59;97.80
80116;BME280;69423;47.608;19.366;2023-07-22T02:32:45;98653.22;;;16.65;97.75
80116;BME280;69423;47.608;19.366;2023-07-22T02:33:16;98653.66;;;16.62;98.12
80116;BME280;69423;47.608;19.366;2023-07-22T02:33:47;98652.03;;;16.61;98.37
80116;BME280;69423;47.608;19.366;2023-07-22T02:34:19;98647.94;;;16.58;97.82
80116;BME280;69423;47.608;19.366;2023-07-22T02:34:50;98645.47;;;16.57;98.41
80116;BME280;69423;47.608;19.366;2023-07-22T02:35:21;98655.75;;;16.60;98.46
80116;BME280;69423;47.608;19.366;2023-07-22T02:35:52;98655.09;;;16.65;97.81
80116;BME280;69423;47.608;19.366;2023-07-22T02:36:23;98660.22;;;16.66;98.30
80116;BME280;69423;47.608;19.366;2023-07-22T02:36:54;98655.53;;;16.62;98.06
80116;BME280;69423;47.608;19.366;2023-07-22T02:37:25;98663.16;;;16.65;97.95
80116;BME280;69423;47.608;19.366;2023-07-22T02:37:56;98663.97;;;16.65;97.72
80116;BME280;69423;47.608;19.366;2023-07-22T02:38:27;98667.13;;;16.62;97.73
80116;BME280;69423;47.608;19.366;2023-07-22T02:38:58;98667.72;;;16.64;97.34
80116;BME280;69423;47.608;19.366;2023-07-22T02:39:29;98666.09;;;16.63;97.61
80116;BME280;69423;47.608;19.366;2023-07-22T02:40:00;98667.72;;;16.64;97.54
80116;BME280;69423;47.608;19.366;2023-07-22T02:40:34;98664.91;;;16.59;97.45
80116;BME280;69423;47.608;19.366;2023-07-22T02:41:05;98664.69;;;16.61;98.14
80116;BME280;69423;47.608;19.366;2023-07-22T02:41:39;98662.78;;;16.61;98.17
80116;BME280;69423;47.608;19.366;2023-07-22T02:42:10;98665.00;;;16.64;97.91
80116;BME280;69423;47.608;19.366;2023-07-22T02:42:41;98664.56;;;16.67;97.66
80116;BME280;69423;47.608;19.366;2023-07-22T02:43:12;98670.66;;;16.63;97.37
80116;BME280;69423;47.608;19.366;2023-07-22T02:43:43;98663.59;;;16.62;97.85
80116;BME280;69423;47.608;19.366;2023-07-22T02:44:14;98665.13;;;16.57;97.68
80116;BME280;69423;47.608;19.366;2023-07-22T02:44:45;98674.84;;;16.58;97.96